Time;durP1;ratioP1;P1;durP2;ratioP2;P2;SDS_P1;SDS_P2;PMS_P1;PMS_P2;Temp;Humidity;BMP_temperature;BMP_pressure;BME280_temperature;BME280_humidity;BME280_pressure;Samples;Min_cycle;Max_cycle;Signal;HPM_P1;HPM_P2
2021/06/14 00:00:24;;;;;;;3.67;3.37;;;16.20;79.40;;;;;;4866851;29;20967;-81
2021/06/14 00:02:51;;;;;;;4.20;3.83;;;16.10;79.40;;;;;;4862471;29;20463;-80
2021/06/14 00:05:28;;;;;;;3.47;3.17;;;16.10;79.80;;;;;;4867343;29;20478;-80
2021/06/14 00:07:55;;;;;;;8.80;4.27;;;16.10;80.80;;;;;;4863738;29;20466;-80
2021/06/14 00:10:25;;;;;;;4.00;3.57;;;16.10;81.10;;;;;;4867112;29;20462;-80
2021/06/14 00:12:54;;;;;;;3.57;3.27;;;16.00;81.40;;;;;;4862080;29;20922;-80
2021/06/14 00:15:21;;;;;;;4.23;3.67;;;16.00;81.60;;;;;;4866858;29;20477;-80
2021/06/14 00:17:48;;;;;;;4.23;3.63;;;16.00;82.50;;;;;;4867522;29;20459;-80
2021/06/14 00:20:17;;;;;;;4.30;4.00;;;15.90;83.70;;;;;;4867486;29;20468;-80
2021/06/14 00:22:44;;;;;;;3.73;2.40;;;15.90;84.30;;;;;;4867735;29;20473;-80
2021/06/14 00:25:14;;;;;;;3.40;3.00;;;15.80;84.70;;;;;;4867069;29;20482;-80
2021/06/14 00:27:41;;;;;;;4.20;3.00;;;15.80;84.90;;;;;;4867402;29;20455;-80
2021/06/14 00:30:11;;;;;;;4.40;4.00;;;15.80;84.80;;;;;;4867408;29;20467;-80
2021/06/14 00:32:38;;;;;;;4.13;3.83;;;15.80;85.00;;;;;;4867055;29;20461;-80
2021/06/14 00:35:06;;;;;;;3.77;3.57;;;15.70;85.30;;;;;;4867350;29;20987;-80
2021/06/14 00:37:33;;;;;;;4.23;3.83;;;15.60;86.00;;;;;;4867289;29;20460;-80
2021/06/14 00:40:00;;;;;;;4.50;4.10;;;15.60;86.80;;;;;;4866964;29;20468;-80
2021/06/14 00:42:27;;;;;;;5.30;3.67;;;15.50;87.50;;;;;;4866541;29;20461;-80
2021/06/14 00:44:53;;;;;;;3.50;3.30;;;15.50;87.80;;;;;;4866870;29;20463;-80
2021/06/14 00:47:21;;;;;;;4.30;3.80;;;15.50;88.20;;;;;;4867339;29;20500;-80
2021/06/14 00:49:48;;;;;;;5.80;3.73;;;15.50;88.90;;;;;;4866423;29;20464;-81
2021/06/14 00:52:15;;;;;;;8.43;4.10;;;15.50;89.10;;;;;;4866372;29;20941;-80
2021/06/14 00:54:42;;;;;;;4.80;3.87;;;15.40;89.50;;;;;;4867432;29;20462;-80
2021/06/14 00:57:10;;;;;;;3.80;3.50;;;15.40;90.00;;;;;;4866548;29;20484;-80
2021/06/14 00:59:37;;;;;;;3.00;2.90;;;15.30;90.00;;;;;;4866510;29;20465;-80
2021/06/14 01:02:04;;;;;;;4.53;3.63;;;15.30;90.10;;;;;;4865945;29;20451;-81
2021/06/14 01:04:32;;;;;;;6.33;4.27;;;15.30;90.30;;;;;;4866392;29;20466;-80
2021/06/14 01:06:59;;;;;;;3.37;3.13;;;15.30;90.10;;;;;;4866640;29;20848;-80
2021/06/14 01:09:26;;;;;;;3.00;2.40;;;15.20;90.00;;;;;;4849820;29;20510;-80
2021/06/14 01:11:58;;;;;;;3.63;3.30;;;15.20;90.00;;;;;;4866833;29;20473;-81
2021/06/14 01:14:32;;;;;;;4.10;3.70;;;15.10;90.00;;;;;;4866594;29;20955;-80
2021/06/14 01:17:05;;;;;;;3.17;2.97;;;15.10;90.30;;;;;;4866459;29;20479;-80
2021/06/14 01:20:08;;;;;;;4.03;3.60;;;15.10;90.70;;;;;;4866503;29;20461;-80
2021/06/14 01:23:16;;;;;;;5.23;4.73;;;15.00;90.90;;;;;;4866522;29;20540;-80
2021/06/14 01:25:50;;;;;;;4.20;3.80;;;15.00;91.40;;;;;;4865211;29;20473;-80
2021/06/14 01:28:20;;;;;;;5.57;5.03;;;14.90;91.70;;;;;;4865983;29;20465;-80
2021/06/14 01:30:48;;;;;;;6.73;4.23;;;14.90;92.20;;;;;;4866259;29;20464;-80
2021/06/14 01:33:18;;;;;;;4.87;4.47;;;14.90;92.40;;;;;;4866063;29;20455;-80
2021/06/14 01:35:48;;;;;;;3.80;3.50;;;14.90;92.70;;;;;;4865794;29;20486;-80
2021/06/14 01:38:17;;;;;;;4.60;4.13;;;14.80;92.90;;;;;;4865834;29;20816;-80
2021/06/14 01:40:44;;;;;;;4.63;4.03;;;14.80;93.20;;;;;;4865843;29;20809;-80
2021/06/14 01:43:15;;;;;;;3.57;3.33;;;14.80;93.30;;;;;;4866310;29;20465;-80
2021/06/14 01:45:46;;;;;;;4.27;3.87;;;14.70;93.50;;;;;;4865897;29;20540;-80
2021/06/14 01:48:15;;;;;;;5.90;5.30;;;14.70;93.70;;;;;;4914557;23;20505;-82
2021/06/14 01:50:43;;;;;;;4.17;3.77;;;14.70;93.90;;;;;;4882525;29;20463;-82
2021/06/14 01:53:10;;;;;;;4.57;3.57;;;14.60;94.40;;;;;;4882469;29;20459;-82
2021/06/14 01:55:38;;;;;;;4.07;3.77;;;14.60;94.60;;;;;;4882802;29;20456;-83
2021/06/14 01:58:05;;;;;;;4.63;3.70;;;14.60;94.90;;;;;;4882827;29;20472;-82
2021/06/14 02:00:32;;;;;;;4.80;3.90;;;14.60;95.10;;;;;;4882235;29;20936;-82
2021/06/14 02:03:02;;;;;;;4.37;3.73;;;14.60;95.30;;;;;;4881603;29;20938;-83
2021/06/14 02:05:32;;;;;;;4.00;3.70;;;14.50;95.40;;;;;;4881696;29;20460;-83
2021/06/14 02:08:00;;;;;;;4.43;4.10;;;14.50;95.70;;;;;;4882681;29;20520;-83
2021/06/14 02:10:27;;;;;;;4.57;4.17;;;14.50;95.90;;;;;;4881948;29;20456;-82
2021/06/14 02:12:55;;;;;;;4.70;4.30;;;14.50;96.10;;;;;;4883550;29;20452;-81
2021/06/14 02:15:23;;;;;;;4.20;3.90;;;14.50;96.40;;;;;;4882205;29;20454;-83
2021/06/14 02:17:55;;;;;;;4.80;4.50;;;14.40;96.40;;;;;;4881969;29;20469;-82
2021/06/14 02:20:24;;;;;;;3.37;3.17;;;14.40;96.60;;;;;;4882087;29;20456;-82
2021/06/14 02:22:52;;;;;;;4.30;3.90;;;14.40;96.70;;;;;;4881574;29;20456;-82
2021/06/14 02:25:20;;;;;;;5.50;5.10;;;14.40;96.90;;;;;;4882354;29;20460;-82
2021/06/14 02:27:47;;;;;;;5.13;4.13;;;14.30;96.90;;;;;;4881473;29;20500;-82
2021/06/14 02:30:15;;;;;;;5.63;5.03;;;14.30;97.10;;;;;;4881845;29;20460;-83
2021/06/14 02:32:43;;;;;;;6.23;4.37;;;14.20;97.20;;;;;;4881779;29;20825;-82
2021/06/14 02:35:12;;;;;;;4.63;4.23;;;14.20;97.50;;;;;;4881971;29;20456;-82
2021/06/14 02:37:46;;;;;;;5.03;4.63;;;14.10;97.70;;;;;;4881796;29;20473;-82
2021/06/14 02:40:14;;;;;;;4.30;3.90;;;14.10;97.80;;;;;;4881422;29;20455;-82
2021/06/14 02:42:44;;;;;;;4.20;3.83;;;14.10;97.80;;;;;;4881404;29;20460;-82
2021/06/14 02:45:11;;;;;;;5.50;5.07;;;14.00;98.20;;;;;;4881696;29;20460;-82
2021/06/14 02:47:39;;;;;;;3.63;3.20;;;14.00;98.20;;;;;;4881385;29;20499;-82
2021/06/14 02:50:08;;;;;;;3.87;3.50;;;14.00;98.40;;;;;;4881895;29;20483;-82
2021/06/14 02:52:38;;;;;;;5.43;4.93;;;14.00;98.60;;;;;;4881692;29;20461;-82
2021/06/14 02:55:12;;;;;;;4.33;3.93;;;14.00;98.50;;;;;;4881352;29;20456;-82
2021/06/14 02:57:40;;;;;;;4.53;4.23;;;14.00;98.70;;;;;;4881674;29;20514;-82
2021/06/14 03:00:09;;;;;;;4.70;4.30;;;13.90;98.80;;;;;;4881517;29;20456;-82
2021/06/14 03:02:37;;;;;;;5.13;4.80;;;13.80;98.80;;;;;;4882427;29;20460;-82
2021/06/14 03:05:06;;;;;;;5.03;4.20;;;13.80;99.10;;;;;;4884365;29;20829;-82
2021/06/14 03:07:33;;;;;;;6.00;4.77;;;13.80;99.20;;;;;;4883504;29;20500;-82
2021/06/14 03:10:00;;;;;;;5.17;4.67;;;13.70;99.40;;;;;;4884113;29;20459;-82
2021/06/14 03:12:29;;;;;;;5.67;5.17;;;13.70;99.60;;;;;;4884131;29;20453;-83
2021/06/14 03:14:57;;;;;;;5.50;5.00;;;13.70;99.80;;;;;;4883593;29;20460;-82
2021/06/14 03:17:25;;;;;;;5.37;4.30;;;13.70;99.80;;;;;;4883796;29;20476;-82
2021/06/14 03:19:56;;;;;;;4.70;4.27;;;13.70;99.80;;;;;;4884523;29;20467;-83
2021/06/14 03:22:23;;;;;;;5.17;4.77;;;13.70;99.90;;;;;;4885518;29;20441;-83
2021/06/14 03:24:49;;;;;;;6.50;4.53;;;13.70;99.90;;;;;;4887129;29;20465;-82
2021/06/14 03:27:18;;;;;;;5.20;4.80;;;13.70;99.90;;;;;;4886860;29;20503;-82
2021/06/14 03:29:49;;;;;;;4.83;4.43;;;13.70;99.90;;;;;;4887523;29;20495;-82
2021/06/14 03:32:17;;;;;;;4.50;4.10;;;13.70;99.90;;;;;;4886889;29;20467;-82
2021/06/14 03:34:44;;;;;;;5.60;4.83;;;13.70;99.90;;;;;;4886631;29;20456;-83
2021/06/14 03:37:12;;;;;;;4.93;4.40;;;13.70;99.90;;;;;;4887457;29;20480;-83
2021/06/14 03:39:40;;;;;;;5.63;5.13;;;13.70;99.90;;;;;;4886749;29;20942;-83
2021/06/14 03:42:08;;;;;;;5.00;4.60;;;13.70;99.90;;;;;;4886030;29;20463;-83
2021/06/14 03:44:36;;;;;;;5.33;5.03;;;13.70;99.90;;;;;;4886229;29;20456;-84
2021/06/14 03:47:05;;;;;;;4.03;3.73;;;13.70;99.90;;;;;;4885566;29;20492;-82
2021/06/14 03:49:32;;;;;;;5.87;5.27;;;13.80;99.90;;;;;;4887755;29;20469;-82
2021/06/14 03:51:59;;;;;;;4.97;4.20;;;13.70;99.90;;;;;;4888481;29;20479;-83
2021/06/14 03:54:25;;;;;;;5.23;4.83;;;13.70;99.90;;;;;;4888216;29;20463;-83
2021/06/14 03:56:52;;;;;;;4.70;4.37;;;13.70;99.90;;;;;;4889007;29;20464;-82
2021/06/14 03:59:19;;;;;;;5.27;4.87;;;13.70;99.90;;;;;;4885873;29;20508;-82
2021/06/14 04:01:46;;;;;;;5.10;4.70;;;13.70;99.90;;;;;;4885373;29;20452;-82
2021/06/14 04:04:28;;;;;;;5.37;4.90;;;13.70;99.90;;;;;;4886324;29;20460;-82
2021/06/14 04:06:55;;;;;;;4.60;3.80;;;13.70;99.90;;;;;;4885338;29;20492;-82
2021/06/14 04:09:22;;;;;;;5.07;4.60;;;13.60;99.90;;;;;;4885290;29;20457;-82
2021/06/14 04:11:49;;;;;;;4.60;4.20;;;13.60;99.90;;;;;;4885574;29;20455;-82
2021/06/14 04:14:16;;;;;;;6.20;4.47;;;13.60;99.90;;;;;;4885172;29;20468;-82
2021/06/14 04:16:43;;;;;;;6.27;4.77;;;13.70;99.90;;;;;;4884996;29;20483;-83
2021/06/14 04:19:10;;;;;;;6.43;5.20;;;13.70;99.90;;;;;;4885562;29;20462;-82
2021/06/14 04:21:38;;;;;;;9.13;6.73;;;13.70;99.90;;;;;;4885248;29;20813;-82
2021/06/14 04:24:06;;;;;;;6.10;5.50;;;13.80;99.90;;;;;;4885147;29;20459;-82
2021/06/14 04:26:33;;;;;;;5.10;4.70;;;13.80;99.90;;;;;;4885458;29;20493;-82
2021/06/14 04:29:00;;;;;;;5.47;4.60;;;13.80;99.90;;;;;;4885148;29;20472;-82
2021/06/14 04:31:26;;;;;;;6.03;5.20;;;13.90;99.90;;;;;;4885208;29;20829;-82
2021/06/14 04:33:53;;;;;;;6.13;5.53;;;13.90;99.90;;;;;;4884964;29;20460;-82
2021/06/14 04:36:20;;;;;;;5.30;4.80;;;14.00;99.90;;;;;;4884733;29;20807;-83
2021/06/14 04:38:48;;;;;;;5.83;5.33;;;14.00;99.90;;;;;;4884776;29;20468;-83
2021/06/14 04:41:15;;;;;;;5.73;5.20;;;14.10;99.90;;;;;;4884443;29;20460;-83
2021/06/14 04:43:42;;;;;;;6.77;6.20;;;14.10;99.90;;;;;;4884379;29;20460;-83
2021/06/14 04:46:09;;;;;;;8.33;5.67;;;14.10;99.90;;;;;;4885370;29;20457;-82
2021/06/14 04:48:35;;;;;;;6.30;4.30;;;14.20;99.90;;;;;;4885908;29;20503;-82
2021/06/14 04:51:02;;;;;;;5.30;4.00;;;14.30;99.90;;;;;;4887451;29;20459;-83
2021/06/14 04:53:29;;;;;;;5.53;5.03;;;14.30;99.90;;;;;;4886981;29;20453;-83
2021/06/14 04:55:57;;;;;;;6.03;4.20;;;14.40;99.90;;;;;;4886218;29;20456;-83
2021/06/14 04:58:24;;;;;;;4.60;4.20;;;14.50;99.90;;;;;;4886586;29;20495;-82
2021/06/14 05:00:50;;;;;;;4.47;4.07;;;14.50;99.90;;;;;;4886912;29;20468;-82
2021/06/14 05:03:17;;;;;;;5.60;4.70;;;14.60;99.90;;;;;;4887157;29;20468;-83
2021/06/14 05:05:44;;;;;;;4.93;3.70;;;14.70;99.80;;;;;;4887139;29;20453;-82
2021/06/14 05:08:12;;;;;;;4.87;4.40;;;14.80;99.80;;;;;;4886308;29;21049;-82
2021/06/14 05:10:39;;;;;;;5.00;4.60;;;14.80;99.80;;;;;;4885714;29;20470;-83
2021/06/14 05:13:07;;;;;;;5.57;4.50;;;14.90;99.50;;;;;;4885398;29;20465;-83
2021/06/14 05:15:34;;;;;;;4.10;3.77;;;14.90;99.40;;;;;;4885896;29;20464;-82
2021/06/14 05:18:00;;;;;;;4.30;3.90;;;15.00;99.10;;;;;;4885455;29;20477;-83
2021/06/14 05:20:29;;;;;;;5.43;5.03;;;15.10;98.90;;;;;;4885376;29;20475;-82
2021/06/14 05:22:56;;;;;;;4.30;4.00;;;15.20;99.00;;;;;;4884509;29;20464;-84
2021/06/14 05:25:24;;;;;;;5.00;4.03;;;15.30;99.00;;;;;;4885612;29;20966;-83
2021/06/14 05:27:50;;;;;;;4.33;3.93;;;15.30;98.70;;;;;;4885236;29;20498;-83
2021/06/14 05:30:20;;;;;;;5.87;5.37;;;15.40;98.90;;;;;;4885111;29;20465;-82
2021/06/14 05:32:47;;;;;;;4.37;3.97;;;15.40;98.60;;;;;;4885030;29;20462;-83
2021/06/14 05:35:14;;;;;;;4.60;4.30;;;15.50;98.40;;;;;;4885337;29;20833;-82
2021/06/14 05:37:41;;;;;;;4.73;4.30;;;15.60;98.30;;;;;;4884940;29;20482;-83
2021/06/14 05:40:09;;;;;;;5.70;4.83;;;15.60;98.40;;;;;;4886101;29;20456;-83
2021/06/14 05:42:37;;;;;;;4.80;4.40;;;15.60;98.50;;;;;;4886757;29;20462;-83
2021/06/14 05:45:06;;;;;;;4.67;4.27;;;15.70;98.40;;;;;;4885492;29;20834;-83
2021/06/14 05:47:34;;;;;;;5.63;5.13;;;15.80;98.20;;;;;;4886294;29;20496;-83
2021/06/14 05:50:02;;;;;;;6.00;4.97;;;15.90;98.30;;;;;;4884499;29;20475;-83
2021/06/14 05:52:29;;;;;;;4.23;3.70;;;15.90;98.10;;;;;;4884157;29;20473;-83
2021/06/14 05:54:56;;;;;;;4.53;4.10;;;16.00;98.20;;;;;;4884378;29;20473;-83
2021/06/14 05:57:23;;;;;;;6.23;4.50;;;16.10;98.00;;;;;;4885288;29;20479;-83
2021/06/14 05:59:49;;;;;;;4.10;3.80;;;16.10;98.00;;;;;;4884729;29;20468;-83
2021/06/14 06:02:16;;;;;;;6.33;4.43;;;16.20;97.90;;;;;;4884003;29;20467;-82
2021/06/14 06:04:44;;;;;;;4.33;3.93;;;16.20;98.00;;;;;;4886522;29;20457;-84
2021/06/14 06:07:11;;;;;;;4.63;4.13;;;16.30;97.90;;;;;;4887329;29;20476;-84
2021/06/14 06:09:38;;;;;;;4.30;3.90;;;16.40;98.10;;;;;;4884248;29;20461;-84
2021/06/14 06:12:05;;;;;;;5.43;4.13;;;16.50;97.90;;;;;;4886361;29;20485;-82
2021/06/14 06:14:32;;;;;;;6.23;4.57;;;16.50;97.80;;;;;;4890769;29;20459;-83
2021/06/14 06:16:59;;;;;;;5.10;4.67;;;16.70;98.10;;;;;;4887473;29;20457;-83
2021/06/14 06:19:26;;;;;;;4.43;3.87;;;16.70;97.80;;;;;;4881578;29;20472;-84
2021/06/14 06:21:54;;;;;;;5.53;3.80;;;16.80;97.60;;;;;;4879826;29;20489;-84
2021/06/14 06:24:21;;;;;;;4.17;3.73;;;16.90;97.10;;;;;;4881976;29;20456;-84
2021/06/14 06:26:47;;;;;;;4.47;4.07;;;17.00;96.60;;;;;;4885541;29;20848;-84
2021/06/14 06:29:14;;;;;;;5.43;4.53;;;17.00;96.70;;;;;;4885094;29;20493;-83
2021/06/14 06:31:41;;;;;;;5.00;4.27;;;17.10;96.60;;;;;;4884670;29;20461;-84
2021/06/14 06:34:08;;;;;;;3.93;3.63;;;17.20;96.80;;;;;;4886537;29;20466;-84
2021/06/14 06:36:34;;;;;;;5.17;4.60;;;17.20;96.60;;;;;;4884230;29;20463;-84
2021/06/14 06:39:03;;;;;;;4.30;3.90;;;17.30;95.90;;;;;;4885366;29;20498;-84
2021/06/14 06:41:30;;;;;;;4.30;3.83;;;17.40;95.50;;;;;;4883078;29;20466;-83
2021/06/14 06:43:56;;;;;;;7.13;4.50;;;17.50;95.50;;;;;;4885570;29;20471;-83
2021/06/14 06:46:23;;;;;;;5.83;3.87;;;17.60;94.70;;;;;;4885980;29;20465;-84
2021/06/14 06:48:50;;;;;;;4.70;4.30;;;17.60;95.00;;;;;;4882527;29;20498;-83
2021/06/14 06:51:17;;;;;;;4.47;4.17;;;17.70;94.90;;;;;;4883276;29;20470;-84
2021/06/14 06:53:43;;;;;;;5.03;4.30;;;17.80;94.90;;;;;;4886122;29;20464;-85
2021/06/14 06:56:11;;;;;;;4.47;3.70;;;17.80;95.10;;;;;;4889316;29;20454;-83
2021/06/14 06:58:38;;;;;;;3.90;3.60;;;17.90;94.50;;;;;;4890562;29;20482;-84
2021/06/14 07:01:05;;;;;;;5.47;4.20;;;18.00;94.60;;;;;;4888189;29;20957;-85
2021/06/14 07:03:32;;;;;;;4.73;3.70;;;18.10;95.10;;;;;;4884855;29;20471;-84
2021/06/14 07:05:58;;;;;;;4.20;3.80;;;18.20;93.80;;;;;;4884947;29;20456;-83
2021/06/14 07:08:25;;;;;;;3.73;3.23;;;18.20;92.90;;;;;;4882604;29;20499;-84
2021/06/14 07:10:52;;;;;;;3.97;3.60;;;18.30;93.60;;;;;;4882716;29;20463;-82
2021/06/14 07:13:20;;;;;;;4.90;4.17;;;18.40;93.50;;;;;;4882399;29;20466;-83
2021/06/14 07:15:47;;;;;;;3.67;3.37;;;18.40;93.40;;;;;;4882979;29;20496;-83
2021/06/14 07:18:14;;;;;;;4.13;3.77;;;18.50;92.90;;;;;;4883339;29;20545;-84
2021/06/14 07:20:40;;;;;;;4.07;3.67;;;18.50;92.80;;;;;;4883796;29;20466;-83
2021/06/14 07:23:07;;;;;;;3.63;3.13;;;18.60;93.10;;;;;;4885163;29;20469;-84
2021/06/14 07:25:34;;;;;;;3.80;3.40;;;18.70;93.10;;;;;;4882391;29;20474;-83
2021/06/14 07:28:01;;;;;;;4.93;3.83;;;18.80;92.60;;;;;;4884172;29;20588;-81
2021/06/14 07:30:29;;;;;;;4.90;3.53;;;18.80;92.30;;;;;;4888834;29;20470;-83
2021/06/14 07:32:56;;;;;;;3.70;3.50;;;18.90;92.40;;;;;;4890431;29;20473;-83
2021/06/14 07:35:23;;;;;;;5.10;4.60;;;18.90;92.20;;;;;;4890379;29;20448;-83
2021/06/14 07:37:50;;;;;;;3.93;3.53;;;19.00;91.20;;;;;;4890279;29;20481;-83
2021/06/14 07:40:17;;;;;;;3.37;3.10;;;19.10;91.70;;;;;;4893635;29;20443;-83
2021/06/14 07:42:44;;;;;;;5.90;4.00;;;19.10;91.50;;;;;;4892859;29;20459;-83
2021/06/14 07:45:12;;;;;;;4.93;3.67;;;19.20;91.60;;;;;;4897268;29;20452;-83
2021/06/14 07:55:26;;;;;;;4.23;3.80;;;19.60;90.20;;;;;;4849663;29;20486;-84
2021/06/14 07:57:56;;;;;;;4.10;3.60;;;19.60;89.90;;;;;;4852839;29;20493;-85
2021/06/14 08:00:23;;;;;;;6.07;4.20;;;19.70;88.20;;;;;;4851843;29;20445;-85
2021/06/14 08:02:50;;;;;;;6.63;4.07;;;19.80;88.40;;;;;;4853197;29;20485;-85
2021/06/14 08:05:17;;;;;;;5.80;4.60;;;19.90;89.70;;;;;;4851487;29;20454;-85
2021/06/14 08:07:44;;;;;;;10.50;5.23;;;20.00;90.40;;;;;;4851185;29;20536;-84
2021/06/14 08:10:16;;;;;;;4.20;3.87;;;20.10;90.30;;;;;;4851205;29;20472;-85
2021/06/14 08:12:46;;;;;;;8.77;5.43;;;20.20;90.00;;;;;;4850425;29;20469;-85
2021/06/14 08:15:14;;;;;;;4.60;4.13;;;20.30;88.00;;;;;;4851788;29;20463;-85
2021/06/14 08:17:42;;;;;;;6.03;3.80;;;20.30;87.40;;;;;;4850930;29;20462;-85
2021/06/14 08:20:13;;;;;;;4.33;3.80;;;20.40;88.10;;;;;;4849789;29;20469;-84
2021/06/14 08:25:38;;;;;;;4.90;3.80;;;20.50;88.10;;;;;;4807141;29;20476;-85
2021/06/14 08:28:06;;;;;;;4.43;3.90;;;20.50;88.70;;;;;;4820958;29;20494;-84
2021/06/14 08:30:36;;;;;;;3.37;3.00;;;20.60;90.00;;;;;;4827424;29;20476;-84
2021/06/14 08:33:04;;;;;;;5.00;3.73;;;20.80;89.20;;;;;;4829714;29;20470;-82
2021/06/14 08:35:31;;;;;;;4.00;3.57;;;20.90;86.80;;;;;;4828492;29;20463;-84
2021/06/14 08:37:58;;;;;;;6.10;4.13;;;21.00;86.30;;;;;;4828975;29;20486;-83
2021/06/14 08:40:28;;;;;;;4.17;3.70;;;21.00;85.80;;;;;;4829389;29;20447;-85
2021/06/14 08:43:02;;;;;;;5.87;3.40;;;21.10;84.60;;;;;;4827944;29;20971;-85
2021/06/14 08:45:30;;;;;;;3.93;3.27;;;21.10;85.80;;;;;;4827405;29;20503;-84
2021/06/14 08:47:58;;;;;;;4.37;3.97;;;21.20;83.20;;;;;;4831111;29;20487;-82
2021/06/14 08:50:25;;;;;;;4.03;3.43;;;21.20;83.50;;;;;;4835822;29;20472;-84
2021/06/14 08:52:52;;;;;;;3.80;3.50;;;21.30;84.50;;;;;;4834109;29;20964;-83
2021/06/14 08:55:19;;;;;;;3.87;3.57;;;21.40;85.30;;;;;;4835316;29;20506;-80
2021/06/14 08:57:47;;;;;;;3.63;3.33;;;21.50;84.60;;;;;;4832766;29;20537;-83
2021/06/14 09:00:17;;;;;;;4.13;3.53;;;21.60;81.50;;;;;;4830729;29;20485;-80
2021/06/14 09:02:46;;;;;;;3.90;3.50;;;21.70;81.70;;;;;;4833821;29;20468;-83
2021/06/14 09:05:16;;;;;;;3.40;3.00;;;21.70;82.80;;;;;;4832318;29;20467;-84
2021/06/14 09:07:45;;;;;;;5.17;3.87;;;21.80;80.70;;;;;;4834928;29;20459;-84
2021/06/14 09:10:24;;;;;;;3.97;3.60;;;21.80;85.30;;;;;;4834462;29;20504;-85
2021/06/14 09:12:53;;;;;;;4.43;3.37;;;21.90;81.60;;;;;;4835832;29;20465;-84
2021/06/14 09:15:26;;;;;;;5.00;3.37;;;21.80;78.80;;;;;;4837919;29;20464;-85
2021/06/14 09:17:56;;;;;;;3.30;3.00;;;21.90;80.00;;;;;;4837504;29;20466;-85
2021/06/14 09:20:25;;;;;;;3.37;3.17;;;22.00;80.70;;;;;;4837063;29;20489;-85
2021/06/14 09:22:53;;;;;;;3.63;3.33;;;22.10;81.60;;;;;;4836809;29;20473;-85
2021/06/14 09:25:20;;;;;;;3.47;3.17;;;22.30;82.80;;;;;;4835650;29;20464;-86
2021/06/14 09:27:49;;;;;;;6.13;3.13;;;22.40;80.00;;;;;;4836650;29;20525;-85
2021/06/14 09:30:20;;;;;;;3.20;2.90;;;22.60;78.70;;;;;;4835997;29;20600;-85
2021/06/14 09:39:08;;;;;;;3.50;3.30;;;22.80;78.50;;;;;;4795325;29;20492;-82
2021/06/14 09:41:41;;;;;;;3.97;3.30;;;23.00;78.80;;;;;;4831658;29;20467;-83
2021/06/14 09:44:28;;;;;;;;;;;;;;;;;;;;;
2021/06/14 10:00:58;;;;;;;11.10;5.33;;;23.80;73.80;;;;;;4692191;30;20551;-84
2021/06/14 10:03:27;;;;;;;3.30;3.10;;;24.00;72.40;;;;;;4795823;29;20459;-84
2021/06/14 10:05:56;;;;;;;2.93;2.73;;;24.10;74.10;;;;;;4837473;29;20463;-83
2021/06/14 10:08:27;;;;;;;3.43;3.13;;;24.20;68.90;;;;;;4836079;29;20481;-84
2021/06/14 10:11:11;;;;;;;3.60;3.10;;;24.40;69.00;;;;;;4838271;29;20547;-84
2021/06/14 10:13:41;;;;;;;3.37;3.07;;;24.60;68.10;;;;;;4839902;29;20527;-84
2021/06/14 10:16:09;;;;;;;3.00;2.80;;;24.80;70.50;;;;;;4846621;29;20472;-82
2021/06/14 10:18:40;;;;;;;2.93;2.73;;;25.00;70.60;;;;;;4846995;29;20491;-84
2021/06/14 10:21:12;;;;;;;2.97;2.77;;;25.10;63.50;;;;;;4837479;29;20468;-83
2021/06/14 10:27:16;;;;;;;;;;;;;;;;;;;;;
2021/06/14 10:30:22;;;;;;;3.30;2.97;;;25.60;61.70;;;;;;4774670;29;20592;-84
2021/06/14 10:32:58;;;;;;;4.00;2.80;;;25.70;59.60;;;;;;4834910;29;20502;-85
2021/06/14 10:35:25;;;;;;;3.23;2.93;;;25.70;62.10;;;;;;4841756;29;20470;-84
2021/06/14 10:37:54;;;;;;;3.17;2.60;;;25.80;65.50;;;;;;4840527;29;21160;-85
2021/06/14 10:40:23;;;;;;;3.60;3.10;;;25.80;63.00;;;;;;4841821;29;20459;-84
2021/06/14 10:42:49;;;;;;;3.07;2.77;;;26.00;62.70;;;;;;4838951;29;20458;-83
2021/06/14 10:45:20;;;;;;;3.63;3.33;;;26.20;62.40;;;;;;4839850;29;21090;-81
2021/06/14 10:47:48;;;;;;;3.87;2.37;;;26.40;58.20;;;;;;4833704;29;20865;-84
2021/06/14 10:50:21;;;;;;;2.20;2.00;;;26.60;55.10;;;;;;4833565;29;20509;-79
2021/06/14 10:52:48;;;;;;;4.63;3.23;;;26.70;56.20;;;;;;4833537;29;20459;-83
2021/06/14 10:55:17;;;;;;;3.93;3.27;;;26.90;56.50;;;;;;4833154;29;20476;-84
2021/06/14 10:57:45;;;;;;;3.80;3.27;;;27.10;58.60;;;;;;4833226;29;20455;-85
2021/06/14 11:00:23;;;;;;;2.80;2.60;;;27.30;58.80;;;;;;4832941;29;20547;-83
2021/06/14 11:02:54;;;;;;;3.33;3.07;;;27.50;57.00;;;;;;4833280;29;20489;-83
2021/06/14 11:05:37;;;;;;;3.53;3.10;;;27.80;58.60;;;;;;4833139;29;20865;-83
2021/06/14 11:08:15;;;;;;;2.80;2.60;;;28.10;57.30;;;;;;4832275;29;20501;-83
2021/06/14 11:10:43;;;;;;;4.87;2.63;;;28.40;52.90;;;;;;4832758;29;20581;-83
2021/06/14 11:13:12;;;;;;;2.97;2.77;;;28.80;51.40;;;;;;4832772;29;20466;-83
2021/06/14 11:15:40;;;;;;;8.40;4.03;;;29.10;51.40;;;;;;4833221;29;20553;-83
2021/06/14 11:18:07;;;;;;;3.77;2.80;;;29.40;50.00;;;;;;4832539;29;20488;-82
2021/06/14 11:20:38;;;;;;;3.77;3.33;;;29.80;52.30;;;;;;4832753;29;20468;-83
2021/06/14 11:23:06;;;;;;;2.60;2.40;;;30.40;52.50;;;;;;4832074;29;20469;-83
2021/06/14 11:25:42;;;;;;;3.60;2.60;;;30.90;49.00;;;;;;4832725;29;20478;-84
2021/06/14 11:28:11;;;;;;;3.17;2.40;;;31.40;49.50;;;;;;4832558;29;20478;-84
2021/06/14 11:30:39;;;;;;;3.50;3.20;;;31.90;48.60;;;;;;4833143;29;20504;-83
2021/06/14 11:33:08;;;;;;;2.80;2.60;;;32.50;46.80;;;;;;4833192;29;20465;-83
2021/06/14 11:35:37;;;;;;;2.73;2.53;;;33.10;45.70;;;;;;4832668;29;20484;-83
2021/06/14 11:38:16;;;;;;;3.50;2.83;;;33.50;42.20;;;;;;4832703;29;20477;-84
2021/06/14 11:40:50;;;;;;;3.67;2.60;;;33.60;41.30;;;;;;4832517;29;20461;-84
2021/06/14 11:43:17;;;;;;;3.03;2.80;;;34.00;41.10;;;;;;4831677;29;20467;-84
2021/06/14 11:45:46;;;;;;;3.00;2.80;;;34.20;38.80;;;;;;4832650;29;20802;-84
2021/06/14 11:48:23;;;;;;;2.37;2.17;;;34.50;39.90;;;;;;4832274;29;20491;-84
2021/06/14 11:51:01;;;;;;;3.20;2.90;;;35.00;39.30;;;;;;4832343;29;20494;-84
2021/06/14 11:53:28;;;;;;;3.30;3.00;;;35.40;38.50;;;;;;4833510;29;20473;-84
2021/06/14 11:55:55;;;;;;;2.43;2.23;;;35.70;39.20;;;;;;4832639;29;20455;-84
2021/06/14 11:58:23;;;;;;;3.07;2.37;;;36.00;36.60;;;;;;4832393;29;20863;-84
2021/06/14 12:00:50;;;;;;;3.70;2.67;;;36.30;36.40;;;;;;4832246;29;20459;-84
2021/06/14 12:03:23;;;;;;;2.80;2.60;;;36.50;36.10;;;;;;4832045;29;20474;-84
2021/06/14 12:05:52;;;;;;;3.60;3.30;;;36.60;35.90;;;;;;4832208;29;20455;-84
2021/06/14 12:08:21;;;;;;;2.47;2.27;;;36.80;36.40;;;;;;4832228;29;20509;-84
2021/06/14 12:10:49;;;;;;;3.87;2.73;;;37.10;34.40;;;;;;4832062;29;20499;-84
2021/06/14 12:13:18;;;;;;;4.97;2.70;;;37.30;35.10;;;;;;4832061;29;20467;-84
2021/06/14 12:15:47;;;;;;;2.57;2.37;;;36.80;33.70;;;;;;4832561;29;20519;-84
2021/06/14 12:18:15;;;;;;;3.70;2.87;;;36.80;33.60;;;;;;4832328;29;20487;-82
2021/06/14 12:20:44;;;;;;;2.53;2.40;;;36.90;35.20;;;;;;4832622;29;20554;-84
2021/06/14 12:23:14;;;;;;;2.67;2.47;;;37.40;35.60;;;;;;4831761;29;20459;-84
2021/06/14 12:25:43;;;;;;;3.30;2.50;;;38.10;34.80;;;;;;4832100;29;20470;-84
2021/06/14 12:28:14;;;;;;;2.30;2.20;;;38.80;32.40;;;;;;4832325;29;20852;-84
2021/06/14 12:30:42;;;;;;;2.97;2.67;;;39.40;32.70;;;;;;4831865;29;20487;-83
2021/06/14 12:33:10;;;;;;;2.63;2.43;;;39.80;30.60;;;;;;4831407;29;20458;-84
2021/06/14 12:35:38;;;;;;;2.63;2.53;;;39.90;32.10;;;;;;4831971;29;20511;-84
2021/06/14 12:38:10;;;;;;;3.57;3.27;;;40.00;29.70;;;;;;4831699;29;20528;-83
2021/06/14 12:40:40;;;;;;;2.80;2.10;;;39.50;29.20;;;;;;4831341;29;20486;-83
2021/06/14 12:43:09;;;;;;;2.60;2.50;;;38.90;29.80;;;;;;4831561;29;20974;-82
2021/06/14 12:45:38;;;;;;;4.07;2.50;;;38.60;31.30;;;;;;4831383;29;20471;-83
2021/06/14 12:48:07;;;;;;;2.07;1.97;;;38.50;31.30;;;;;;4830940;29;20486;-83
2021/06/14 12:50:36;;;;;;;2.40;2.20;;;38.50;30.60;;;;;;4831462;29;20873;-84
2021/06/14 12:53:06;;;;;;;3.77;2.50;;;38.60;31.70;;;;;;4829993;29;20463;-83
2021/06/14 12:55:36;;;;;;;2.57;2.37;;;39.10;31.70;;;;;;4832073;29;20462;-83
2021/06/14 12:58:08;;;;;;;3.00;2.80;;;39.70;31.50;;;;;;4831421;29;20487;-84
2021/06/14 13:00:37;;;;;;;3.00;2.70;;;40.40;30.80;;;;;;4832202;29;20844;-84
2021/06/14 13:03:05;;;;;;;2.73;2.53;;;40.80;29.70;;;;;;4830918;29;20460;-84
2021/06/14 13:05:34;;;;;;;2.53;2.30;;;41.00;28.50;;;;;;4831951;29;20468;-84
2021/06/14 13:08:05;;;;;;;4.00;2.70;;;41.30;29.10;;;;;;4830951;29;20482;-83
2021/06/14 13:10:34;;;;;;;3.23;3.03;;;41.20;27.90;;;;;;4831410;29;20503;-84
2021/06/14 13:13:16;;;;;;;2.80;2.60;;;41.10;28.10;;;;;;4831431;29;20471;-83
2021/06/14 13:15:43;;;;;;;3.27;2.67;;;41.50;27.80;;;;;;4831102;29;20467;-84
2021/06/14 13:18:13;;;;;;;2.63;2.43;;;41.70;27.80;;;;;;4830741;29;20855;-84
2021/06/14 13:20:40;;;;;;;3.30;2.27;;;41.90;27.90;;;;;;4831814;29;20813;-84
2021/06/14 13:23:12;;;;;;;2.53;2.33;;;42.00;27.40;;;;;;4831338;29;20466;-84
2021/06/14 13:25:43;;;;;;;2.73;2.53;;;42.20;26.20;;;;;;4831395;29;20470;-84
2021/06/14 13:28:10;;;;;;;2.37;2.27;;;42.30;27.40;;;;;;4830997;29;20921;-84
2021/06/14 13:30:41;;;;;;;2.60;2.50;;;42.70;27.70;;;;;;4831030;29;20506;-84